Time;durP1;ratioP1;P1;durP2;ratioP2;P2;SDS_P1;SDS_P2;PMS_P1;PMS_P2;Temp;Humidity;BMP_temperature;BMP_pressure;BME280_temperature;BME280_humidity;BME280_pressure;Samples;Min_cycle;Max_cycle;Signal;HPM_P1;HPM_P2
2023/08/31 00:00:42;;;;;;;7.80;6.00;;;;;;;;;;5075100;28;20528;-61
2023/08/31 00:03:09;;;;;;;15.83;7.10;;;;;;;;;;5075495;28;20520;-61
2023/08/31 00:05:40;;;;;;;13.00;8.23;;;;;;;;;;5075066;28;20442;-60
2023/08/31 00:08:09;;;;;;;14.43;7.83;;;;;;;;;;5075457;28;20517;-60
2023/08/31 00:10:36;;;;;;;9.77;6.67;;;;;;;;;;5075357;28;20525;-61
2023/08/31 00:13:03;;;;;;;15.83;8.33;;;;;;;;;;5075530;28;20528;-61
2023/08/31 00:15:32;;;;;;;9.50;7.20;;;;;;;;;;5075520;28;20826;-60
2023/08/31 00:17:59;;;;;;;13.00;7.17;;;;;;;;;;5075206;28;20530;-60
2023/08/31 00:20:30;;;;;;;11.10;7.60;;;;;;;;;;5075076;28;20529;-60
2023/08/31 00:22:58;;;;;;;9.57;7.40;;;;;;;;;;5075236;28;20446;-60
2023/08/31 00:25:26;;;;;;;11.70;8.47;;;;;;;;;;5074597;28;20446;-60
2023/08/31 00:27:54;;;;;;;12.60;7.47;;;;;;;;;;5074951;28;20485;-61
2023/08/31 00:30:25;;;;;;;9.27;6.80;;;;;;;;;;5075290;28;20930;-60
2023/08/31 00:32:53;;;;;;;10.70;7.20;;;;;;;;;;5074747;28;20452;-60
2023/08/31 00:35:20;;;;;;;10.37;7.47;;;;;;;;;;5074779;28;20469;-60
2023/08/31 00:37:49;;;;;;;9.93;7.13;;;;;;;;;;5074650;28;20439;-60
2023/08/31 00:40:18;;;;;;;11.40;7.50;;;;;;;;;;5074793;28;20808;-60
2023/08/31 00:42:46;;;;;;;12.93;8.60;;;;;;;;;;5074806;28;20487;-60
2023/08/31 00:45:13;;;;;;;12.23;7.00;;;;;;;;;;5074630;28;20457;-60
2023/08/31 00:47:41;;;;;;;17.30;8.23;;;;;;;;;;5074204;28;20465;-60
2023/08/31 00:50:10;;;;;;;12.70;8.20;;;;;;;;;;5075248;28;20798;-60
2023/08/31 00:52:37;;;;;;;9.40;7.87;;;;;;;;;;5074383;28;20454;-60
2023/08/31 00:55:06;;;;;;;9.77;7.77;;;;;;;;;;5074779;28;20975;-61
2023/08/31 00:57:33;;;;;;;14.60;8.03;;;;;;;;;;5075070;28;20460;-61
2023/08/31 01:00:02;;;;;;;16.10;9.07;;;;;;;;;;5074924;28;20491;-61
2023/08/31 01:02:32;;;;;;;9.23;8.00;;;;;;;;;;5074464;28;20836;-61
2023/08/31 01:05:02;;;;;;;9.53;8.50;;;;;;;;;;5074785;28;20508;-61
2023/08/31 01:07:33;;;;;;;12.53;8.10;;;;;;;;;;5074645;28;20416;-61
2023/08/31 01:10:06;;;;;;;12.10;8.60;;;;;;;;;;5073879;28;20898;-61
2023/08/31 01:12:36;;;;;;;15.80;8.47;;;;;;;;;;5074846;28;20791;-61
2023/08/31 01:15:07;;;;;;;11.30;8.43;;;;;;;;;;5074406;28;20568;-61
2023/08/31 01:17:36;;;;;;;11.00;8.13;;;;;;;;;;5074037;28;20444;-60
2023/08/31 01:20:06;;;;;;;10.43;8.17;;;;;;;;;;5074004;28;20448;-61
2023/08/31 01:22:35;;;;;;;9.27;8.13;;;;;;;;;;5074315;28;20461;-61
2023/08/31 01:25:05;;;;;;;16.37;8.50;;;;;;;;;;5073893;28;20513;-61
2023/08/31 01:27:33;;;;;;;10.53;9.50;;;;;;;;;;5073877;28;20422;-61
2023/08/31 01:30:00;;;;;;;11.93;7.90;;;;;;;;;;5073873;28;20442;-61
2023/08/31 01:32:28;;;;;;;16.67;9.17;;;;;;;;;;5073770;28;20437;-61
2023/08/31 01:34:57;;;;;;;10.63;7.47;;;;;;;;;;5073307;28;20481;-61
2023/08/31 01:37:28;;;;;;;11.63;9.77;;;;;;;;;;5073605;28;20557;-61
2023/08/31 01:39:59;;;;;;;14.73;8.07;;;;;;;;;;5073583;28;20727;-61
2023/08/31 01:42:28;;;;;;;9.70;7.80;;;;;;;;;;5073684;28;20421;-61
2023/08/31 01:44:57;;;;;;;13.83;8.87;;;;;;;;;;5073312;28;20440;-60
2023/08/31 01:47:25;;;;;;;10.50;8.60;;;;;;;;;;5073573;28;20445;-61
2023/08/31 01:49:53;;;;;;;15.10;8.40;;;;;;;;;;5073170;28;20458;-61
2023/08/31 01:52:20;;;;;;;13.00;9.00;;;;;;;;;;5073394;28;20449;-61
2023/08/31 01:54:47;;;;;;;13.90;7.73;;;;;;;;;;5073614;28;20489;-61
2023/08/31 01:57:14;;;;;;;17.00;8.27;;;;;;;;;;5072903;28;20436;-61
2023/08/31 01:59:43;;;;;;;11.63;7.53;;;;;;;;;;5073164;28;20437;-61
2023/08/31 02:02:10;;;;;;;9.37;7.37;;;;;;;;;;5073127;28;20938;-61
2023/08/31 02:04:37;;;;;;;9.80;6.67;;;;;;;;;;5072910;28;20957;-61
2023/08/31 02:07:04;;;;;;;11.50;7.60;;;;;;;;;;5073081;28;20442;-61
2023/08/31 02:09:31;;;;;;;13.23;6.93;;;;;;;;;;5072698;28;20448;-61
2023/08/31 02:11:59;;;;;;;8.10;6.30;;;;;;;;;;5072905;28;20466;-61
2023/08/31 02:14:26;;;;;;;7.03;6.03;;;;;;;;;;5073089;28;20485;-62
2023/08/31 02:16:55;;;;;;;6.33;5.50;;;;;;;;;;5073397;28;20527;-61
2023/08/31 02:19:22;;;;;;;13.17;6.03;;;;;;;;;;5073244;28;20520;-61
2023/08/31 02:21:49;;;;;;;6.77;5.40;;;;;;;;;;5072902;28;20475;-61
2023/08/31 02:24:16;;;;;;;10.17;6.20;;;;;;;;;;5073466;28;20447;-61
2023/08/31 02:26:43;;;;;;;9.20;6.47;;;;;;;;;;5072625;28;20469;-61
2023/08/31 02:29:11;;;;;;;8.33;5.80;;;;;;;;;;5072726;28;21009;-61
2023/08/31 02:31:38;;;;;;;9.30;5.77;;;;;;;;;;5072930;28;20611;-61
2023/08/31 02:34:06;;;;;;;7.43;6.53;;;;;;;;;;5072389;28;20480;-61
2023/08/31 02:36:34;;;;;;;7.43;5.97;;;;;;;;;;5072914;28;20527;-61
2023/08/31 02:39:01;;;;;;;8.77;5.83;;;;;;;;;;5073044;28;20436;-65
2023/08/31 02:41:28;;;;;;;9.47;6.57;;;;;;;;;;5072368;28;20433;-61
2023/08/31 02:43:56;;;;;;;7.73;5.83;;;;;;;;;;5073140;28;20511;-61
2023/08/31 02:46:23;;;;;;;11.67;6.77;;;;;;;;;;5073084;28;20523;-61
2023/08/31 02:48:51;;;;;;;8.67;6.10;;;;;;;;;;5072793;28;20445;-61
2023/08/31 02:51:20;;;;;;;9.20;6.17;;;;;;;;;;5072539;28;20928;-62
2023/08/31 02:53:47;;;;;;;12.77;7.90;;;;;;;;;;5072115;28;20536;-61
2023/08/31 02:56:14;;;;;;;11.77;7.10;;;;;;;;;;5072636;28;20527;-61
2023/08/31 02:58:41;;;;;;;9.70;7.07;;;;;;;;;;5072601;28;20440;-60
2023/08/31 03:01:10;;;;;;;15.50;7.50;;;;;;;;;;5072165;28;20443;-60
2023/08/31 03:03:38;;;;;;;14.50;7.73;;;;;;;;;;5072143;28;20535;-60
2023/08/31 03:06:05;;;;;;;11.20;7.53;;;;;;;;;;5072637;28;20587;-60
2023/08/31 03:08:35;;;;;;;9.97;8.97;;;;;;;;;;5072141;28;20468;-60
2023/08/31 03:11:02;;;;;;;10.63;8.80;;;;;;;;;;5073123;28;20806;-60
2023/08/31 03:13:29;;;;;;;11.30;9.03;;;;;;;;;;5076296;28;20520;-60
2023/08/31 03:15:57;;;;;;;12.50;8.90;;;;;;;;;;5076335;28;20486;-60
2023/08/31 03:18:24;;;;;;;14.23;9.43;;;;;;;;;;5076365;28;20961;-60
2023/08/31 03:20:51;;;;;;;12.20;9.20;;;;;;;;;;5076268;28;20495;-60
2023/08/31 03:23:18;;;;;;;13.40;8.90;;;;;;;;;;5076115;28;20450;-60
2023/08/31 03:25:47;;;;;;;12.00;9.40;;;;;;;;;;5076139;28;20441;-60
2023/08/31 03:28:14;;;;;;;12.90;9.50;;;;;;;;;;5075905;28;20455;-60
2023/08/31 03:30:44;;;;;;;13.33;10.20;;;;;;;;;;5075772;28;20969;-61
2023/08/31 03:33:12;;;;;;;15.30;10.30;;;;;;;;;;5075583;28;20963;-61
2023/08/31 03:35:39;;;;;;;16.00;10.90;;;;;;;;;;5075985;28;20463;-61
2023/08/31 03:38:06;;;;;;;13.80;10.90;;;;;;;;;;5075471;28;20441;-60
2023/08/31 03:40:33;;;;;;;14.80;12.13;;;;;;;;;;5075576;28;20541;-60
2023/08/31 03:43:03;;;;;;;16.77;12.73;;;;;;;;;;5075487;28;20560;-61
2023/08/31 03:45:30;;;;;;;19.23;11.20;;;;;;;;;;5075771;28;20444;-61
2023/08/31 03:47:57;;;;;;;15.00;11.57;;;;;;;;;;5075418;28;20969;-60
2023/08/31 03:50:24;;;;;;;15.23;11.93;;;;;;;;;;5076064;28;20527;-61
2023/08/31 03:52:52;;;;;;;15.07;12.30;;;;;;;;;;5095141;28;20444;-60
2023/08/31 03:55:19;;;;;;;16.90;11.93;;;;;;;;;;5094020;28;20468;-60
2023/08/31 03:57:46;;;;;;;16.33;13.00;;;;;;;;;;5094834;28;20443;-61
2023/08/31 04:00:16;;;;;;;17.57;13.70;;;;;;;;;;5095285;28;20436;-60
2023/08/31 04:02:44;;;;;;;16.57;12.60;;;;;;;;;;5094925;28;20454;-61
2023/08/31 04:05:11;;;;;;;18.60;12.40;;;;;;;;;;5095040;28;20530;-61
2023/08/31 04:07:38;;;;;;;19.63;14.80;;;;;;;;;;5094869;28;20527;-62
2023/08/31 04:10:06;;;;;;;24.87;13.87;;;;;;;;;;5094684;28;20538;-62
2023/08/31 04:12:34;;;;;;;19.80;13.47;;;;;;;;;;5095367;28;20442;-62
2023/08/31 04:15:02;;;;;;;16.90;14.03;;;;;;;;;;5095131;28;20508;-61
2023/08/31 04:17:31;;;;;;;19.40;13.30;;;;;;;;;;5095230;28;20473;-61
2023/08/31 04:19:58;;;;;;;18.50;13.10;;;;;;;;;;5095288;28;20806;-61
2023/08/31 04:22:26;;;;;;;20.07;11.93;;;;;;;;;;5094049;28;20532;-61
2023/08/31 04:24:53;;;;;;;26.30;14.70;;;;;;;;;;5095217;28;20435;-61
2023/08/31 04:27:20;;;;;;;19.90;13.10;;;;;;;;;;5095708;28;20444;-62
2023/08/31 04:29:48;;;;;;;23.93;15.90;;;;;;;;;;5095372;28;20434;-62
2023/08/31 04:32:16;;;;;;;18.73;14.53;;;;;;;;;;5095423;28;20445;-62
2023/08/31 04:34:44;;;;;;;17.93;13.77;;;;;;;;;;5094282;28;20507;-63
2023/08/31 04:37:11;;;;;;;21.00;15.00;;;;;;;;;;5095276;28;20531;-62
2023/08/31 04:39:38;;;;;;;22.60;14.40;;;;;;;;;;5095005;28;20475;-62
2023/08/31 04:42:06;;;;;;;20.67;14.30;;;;;;;;;;5095171;28;20444;-62
2023/08/31 04:44:33;;;;;;;20.33;15.60;;;;;;;;;;5094911;28;20451;-62
2023/08/31 04:47:00;;;;;;;17.40;14.10;;;;;;;;;;5094639;28;20437;-62
2023/08/31 04:49:27;;;;;;;18.13;15.90;;;;;;;;;;5094937;28;20910;-60
2023/08/31 04:51:57;;;;;;;23.77;16.47;;;;;;;;;;5095246;28;20878;-60
2023/08/31 04:54:24;;;;;;;25.23;17.23;;;;;;;;;;5095190;28;20467;-60
2023/08/31 04:56:52;;;;;;;29.93;18.10;;;;;;;;;;5094149;28;20435;-60
2023/08/31 04:59:19;;;;;;;23.30;18.23;;;;;;;;;;5094237;28;20479;-67
2023/08/31 05:01:46;;;;;;;25.07;20.20;;;;;;;;;;5094499;28;20838;-60
2023/08/31 05:04:14;;;;;;;28.03;20.30;;;;;;;;;;5094605;28;20757;-61
2023/08/31 05:06:41;;;;;;;31.20;21.03;;;;;;;;;;5094438;28;20450;-61
2023/08/31 05:09:10;;;;;;;23.83;20.40;;;;;;;;;;5093970;28;20440;-61
2023/08/31 05:11:36;;;;;;;28.90;20.90;;;;;;;;;;5094215;28;20428;-61
2023/08/31 05:14:03;;;;;;;31.03;22.23;;;;;;;;;;5094734;28;20440;-61
2023/08/31 05:16:30;;;;;;;24.47;21.17;;;;;;;;;;5094298;28;20876;-61
2023/08/31 05:18:57;;;;;;;27.73;20.90;;;;;;;;;;5094231;28;20436;-61
2023/08/31 05:21:25;;;;;;;27.40;22.87;;;;;;;;;;5094302;28;20531;-61
2023/08/31 05:23:52;;;;;;;30.43;23.30;;;;;;;;;;5094398;28;20448;-61
2023/08/31 05:26:20;;;;;;;25.77;21.97;;;;;;;;;;5094129;28;20480;-61
2023/08/31 05:28:48;;;;;;;26.60;21.83;;;;;;;;;;5093825;28;20432;-62
2023/08/31 05:31:15;;;;;;;33.30;22.60;;;;;;;;;;5093660;28;20937;-61
2023/08/31 05:33:42;;;;;;;27.47;22.33;;;;;;;;;;5093991;28;20539;-61
2023/08/31 05:36:09;;;;;;;25.70;21.77;;;;;;;;;;5093806;28;20474;-61
2023/08/31 05:38:36;;;;;;;27.93;20.63;;;;;;;;;;5093566;28;20475;-61
2023/08/31 05:41:07;;;;;;;25.63;22.10;;;;;;;;;;5093835;28;20496;-61
2023/08/31 05:43:39;;;;;;;22.80;20.00;;;;;;;;;;5093782;28;20452;-61
2023/08/31 05:46:07;;;;;;;30.93;20.37;;;;;;;;;;5093824;28;20435;-61
2023/08/31 05:48:34;;;;;;;28.87;21.83;;;;;;;;;;5094109;28;20839;-61
2023/08/31 05:51:01;;;;;;;29.50;21.37;;;;;;;;;;5093441;28;20947;-61
2023/08/31 05:53:28;;;;;;;28.87;20.50;;;;;;;;;;5093540;28;20558;-61
2023/08/31 05:56:03;;;;;;;25.63;21.70;;;;;;;;;;5093078;28;20477;-61
2023/08/31 05:58:30;;;;;;;24.47;20.77;;;;;;;;;;5093844;28;20815;-62
2023/08/31 06:00:59;;;;;;;27.10;21.83;;;;;;;;;;5093316;28;20469;-62
2023/08/31 06:03:26;;;;;;;31.33;23.37;;;;;;;;;;5093358;28;20428;-61
2023/08/31 06:05:53;;;;;;;30.07;22.67;;;;;;;;;;5092947;28;20523;-61
2023/08/31 06:08:21;;;;;;;32.63;24.17;;;;;;;;;;5092932;28;20869;-62
2023/08/31 06:10:48;;;;;;;28.50;23.27;;;;;;;;;;5093357;28;20801;-61
2023/08/31 06:13:15;;;;;;;31.33;24.10;;;;;;;;;;5093300;28;20531;-62
2023/08/31 06:15:42;;;;;;;31.20;25.20;;;;;;;;;;5093126;28;20479;-61
2023/08/31 06:18:11;;;;;;;29.40;24.53;;;;;;;;;;5093272;28;20436;-61
2023/08/31 06:20:38;;;;;;;29.90;25.50;;;;;;;;;;5092963;28;20516;-61
2023/08/31 06:23:05;;;;;;;33.33;25.40;;;;;;;;;;5093067;28;20447;-61
2023/08/31 06:25:32;;;;;;;31.83;25.00;;;;;;;;;;5092958;28;20531;-61
2023/08/31 06:28:00;;;;;;;31.60;27.50;;;;;;;;;;5092662;28;21009;-61
2023/08/31 06:30:27;;;;;;;37.03;27.70;;;;;;;;;;5093007;28;20798;-61
2023/08/31 06:32:54;;;;;;;38.50;29.37;;;;;;;;;;5093051;28;20468;-61
2023/08/31 06:35:23;;;;;;;38.20;28.40;;;;;;;;;;5092497;28;20477;-61
2023/08/31 06:37:51;;;;;;;39.03;29.50;;;;;;;;;;5093113;28;20445;-61
2023/08/31 06:40:18;;;;;;;38.17;30.00;;;;;;;;;;5092727;28;20454;-61
2023/08/31 06:42:45;;;;;;;36.77;29.23;;;;;;;;;;5092518;28;20993;-61
2023/08/31 06:45:12;;;;;;;36.63;29.97;;;;;;;;;;5092553;28;20480;-61
2023/08/31 06:47:40;;;;;;;34.50;28.40;;;;;;;;;;5096311;28;20439;-61
2023/08/31 06:50:07;;;;;;;38.53;28.20;;;;;;;;;;5096837;28;20446;-61
2023/08/31 06:52:36;;;;;;;36.10;28.00;;;;;;;;;;5096453;28;20458;-61
2023/08/31 06:55:05;;;;;;;43.00;29.70;;;;;;;;;;5097044;28;20813;-61
2023/08/31 06:57:33;;;;;;;38.17;29.70;;;;;;;;;;5096691;28;20441;-61
2023/08/31 07:00:00;;;;;;;36.47;25.00;;;;;;;;;;5096705;28;20515;-61
2023/08/31 07:02:28;;;;;;;35.47;27.30;;;;;;;;;;5097010;28;20536;-61
2023/08/31 07:04:55;;;;;;;39.50;30.30;;;;;;;;;;5096312;28;20538;-61
2023/08/31 07:07:22;;;;;;;44.37;29.93;;;;;;;;;;5096372;28;20892;-61
2023/08/31 07:09:51;;;;;;;40.57;28.23;;;;;;;;;;5096770;28;20440;-61
2023/08/31 07:12:18;;;;;;;38.20;30.37;;;;;;;;;;5096426;28;20427;-61
2023/08/31 07:14:45;;;;;;;40.40;28.20;;;;;;;;;;5096926;28;20439;-61
2023/08/31 07:17:12;;;;;;;31.87;26.60;;;;;;;;;;5096185;28;20559;-61
2023/08/31 07:19:40;;;;;;;31.00;27.43;;;;;;;;;;5096545;28;20530;-61
2023/08/31 07:22:07;;;;;;;38.63;28.93;;;;;;;;;;5096499;28;20534;-61
2023/08/31 07:24:35;;;;;;;37.37;30.53;;;;;;;;;;5096370;28;20441;-61
2023/08/31 07:27:04;;;;;;;32.00;25.00;;;;;;;;;;5096014;28;20446;-61
2023/08/31 07:29:33;;;;;;;32.70;26.10;;;;;;;;;;5095963;28;20441;-61
2023/08/31 07:32:00;;;;;;;31.27;26.30;;;;;;;;;;5096250;28;20467;-61
2023/08/31 07:34:27;;;;;;;31.20;24.93;;;;;;;;;;5096044;28;20459;-61
2023/08/31 07:36:54;;;;;;;32.20;23.57;;;;;;;;;;5095785;28;20492;-61
2023/08/31 07:39:22;;;;;;;32.17;26.03;;;;;;;;;;5096475;28;20449;-61
2023/08/31 07:41:49;;;;;;;28.30;24.47;;;;;;;;;;5095589;28;20437;-61
2023/08/31 07:44:18;;;;;;;34.93;25.23;;;;;;;;;;5095568;28;20449;-61
2023/08/31 07:46:45;;;;;;;25.30;22.60;;;;;;;;;;5095870;28;20487;-61
2023/08/31 07:49:12;;;;;;;25.30;22.37;;;;;;;;;;5095497;28;20533;-61
2023/08/31 07:51:39;;;;;;;28.10;24.00;;;;;;;;;;5095755;28;20806;-61
2023/08/31 07:54:07;;;;;;;29.47;23.57;;;;;;;;;;5095337;28;20477;-61
2023/08/31 07:56:34;;;;;;;22.77;19.37;;;;;;;;;;5095247;28;20485;-61
2023/08/31 07:59:02;;;;;;;27.87;21.33;;;;;;;;;;5095455;28;20452;-61
2023/08/31 08:01:30;;;;;;;19.90;17.63;;;;;;;;;;5095554;28;20439;-61
2023/08/31 08:03:57;;;;;;;20.13;16.90;;;;;;;;;;5095887;28;20503;-61
2023/08/31 08:06:24;;;;;;;18.43;16.50;;;;;;;;;;5095734;28;20536;-61
2023/08/31 08:08:52;;;;;;;20.27;17.20;;;;;;;;;;5095825;28;20492;-61
2023/08/31 08:11:20;;;;;;;17.07;15.37;;;;;;;;;;5095534;28;20533;-61
2023/08/31 08:13:47;;;;;;;16.37;14.43;;;;;;;;;;5095537;28;20436;-61
2023/08/31 08:16:14;;;;;;;17.90;14.57;;;;;;;;;;5095307;28;20470;-61
2023/08/31 08:18:42;;;;;;;12.07;10.87;;;;;;;;;;5095225;28;20447;-61
2023/08/31 08:21:10;;;;;;;15.40;12.03;;;;;;;;;;5095238;28;20446;-61
2023/08/31 08:23:37;;;;;;;14.10;10.87;;;;;;;;;;5095087;28;20440;-61
2023/08/31 08:26:04;;;;;;;11.27;10.23;;;;;;;;;;5095018;28;20600;-61
2023/08/31 08:28:32;;;;;;;11.67;9.73;;;;;;;;;;5094915;28;20456;-61
2023/08/31 08:31:03;;;;;;;9.00;8.20;;;;;;;;;;5095151;28;20448;-61
2023/08/31 08:33:30;;;;;;;8.70;7.87;;;;;;;;;;5095582;28;20506;-61
2023/08/31 08:35:59;;;;;;;9.97;9.07;;;;;;;;;;5095021;28;20445;-61
2023/08/31 08:38:26;;;;;;;10.73;8.63;;;;;;;;;;5094599;28;20939;-61
2023/08/31 08:40:54;;;;;;;10.40;9.00;;;;;;;;;;5094711;28;20949;-61
2023/08/31 08:43:24;;;;;;;10.60;7.60;;;;;;;;;;5094862;28;20541;-61
2023/08/31 08:45:52;;;;;;;9.73;8.70;;;;;;;;;;5094572;28;20978;-61
2023/08/31 08:48:19;;;;;;;10.83;7.90;;;;;;;;;;5094837;28;20442;-61
2023/08/31 08:50:47;;;;;;;9.83;8.50;;;;;;;;;;5094490;28;20452;-61
2023/08/31 08:53:15;;;;;;;10.10;6.90;;;;;;;;;;5094140;28;20573;-61
2023/08/31 08:55:43;;;;;;;10.27;8.20;;;;;;;;;;5095179;28;20845;-61
2023/08/31 08:58:10;;;;;;;9.80;7.60;;;;;;;;;;5094212;28;20499;-61
2023/08/31 09:00:38;;;;;;;8.40;7.20;;;;;;;;;;5095389;28;20439;-61
2023/08/31 09:03:05;;;;;;;7.60;6.90;;;;;;;;;;5094396;28;20994;-61
2023/08/31 09:05:33;;;;;;;8.07;6.30;;;;;;;;;;5094254;28;20473;-61
2023/08/31 09:08:04;;;;;;;7.70;6.30;;;;;;;;;;5094355;28;20532;-61
2023/08/31 09:10:39;;;;;;;7.13;6.43;;;;;;;;;;5094135;28;20525;-61
2023/08/31 09:13:08;;;;;;;8.60;6.73;;;;;;;;;;5094291;28;20440;-61
2023/08/31 09:15:40;;;;;;;7.17;5.50;;;;;;;;;;5094666;28;20440;-61
2023/08/31 09:18:07;;;;;;;7.23;6.57;;;;;;;;;;5094435;28;20475;-61
2023/08/31 09:20:44;;;;;;;9.47;7.53;;;;;;;;;;5094324;28;20442;-61
2023/08/31 09:23:11;;;;;;;7.00;6.33;;;;;;;;;;5094603;28;20453;-61
2023/08/31 09:25:43;;;;;;;8.93;5.80;;;;;;;;;;5093921;28;20900;-61
2023/08/31 09:28:10;;;;;;;6.37;5.70;;;;;;;;;;5093782;28;20929;-61
2023/08/31 09:30:37;;;;;;;6.93;4.90;;;;;;;;;;5094095;28;20533;-61
2023/08/31 09:33:05;;;;;;;6.30;5.40;;;;;;;;;;5094112;28;20473;-61
2023/08/31 09:35:32;;;;;;;5.93;4.23;;;;;;;;;;5094378;28;20542;-61
2023/08/31 09:37:59;;;;;;;7.07;4.60;;;;;;;;;;5093858;28;20477;-61
2023/08/31 09:40:27;;;;;;;4.60;3.90;;;;;;;;;;5093520;28;20529;-61
2023/08/31 09:42:56;;;;;;;4.27;3.87;;;;;;;;;;5093557;28;20934;-61
2023/08/31 09:45:27;;;;;;;4.87;4.43;;;;;;;;;;5093874;28;20445;-61
2023/08/31 09:47:54;;;;;;;8.27;3.70;;;;;;;;;;5093341;28;20529;-61
2023/08/31 09:50:22;;;;;;;5.40;4.40;;;;;;;;;;5094029;28;20442;-61
2023/08/31 09:52:51;;;;;;;6.07;4.03;;;;;;;;;;5093263;28;20465;-61
2023/08/31 09:55:20;;;;;;;3.70;3.37;;;;;;;;;;5093489;28;20462;-61
2023/08/31 09:57:47;;;;;;;4.43;4.03;;;;;;;;;;5093469;28;20482;-61
2023/08/31 10:00:18;;;;;;;5.13;3.50;;;;;;;;;;5094057;28;20523;-61
2023/08/31 10:02:47;;;;;;;5.30;3.53;;;;;;;;;;5093275;28;20926;-61
2023/08/31 10:05:15;;;;;;;4.10;3.70;;;;;;;;;;5093233;28;20511;-61
2023/08/31 10:07:43;;;;;;;7.37;3.50;;;;;;;;;;5093883;28;20438;-61
2023/08/31 10:10:10;;;;;;;5.13;3.60;;;;;;;;;;5093898;28;20433;-61
2023/08/31 10:12:38;;;;;;;6.10;3.23;;;;;;;;;;5093411;28;20522;-61
2023/08/31 10:15:06;;;;;;;4.60;2.77;;;;;;;;;;5093479;28;20537;-61
2023/08/31 10:17:35;;;;;;;8.87;3.27;;;;;;;;;;5093375;28;20574;-61
2023/08/31 10:20:03;;;;;;;11.10;2.70;;;;;;;;;;5092934;28;20480;-62
2023/08/31 10:22:30;;;;;;;6.27;2.50;;;;;;;;;;5093374;28;20497;-60
2023/08/31 10:25:03;;;;;;;3.00;2.40;;;;;;;;;;5092907;28;20484;-60
2023/08/31 10:27:30;;;;;;;2.33;1.70;;;;;;;;;;5093377;28;20484;-60
2023/08/31 10:29:58;;;;;;;3.13;2.50;;;;;;;;;;5093157;28;20521;-60
2023/08/31 10:32:25;;;;;;;3.27;2.33;;;;;;;;;;5092843;28;20485;-60
2023/08/31 10:35:09;;;;;;;3.17;1.33;;;;;;;;;;5092916;28;20516;-60
2023/08/31 10:37:36;;;;;;;1.53;1.43;;;;;;;;;;5093806;28;20482;-62
2023/08/31 10:40:11;;;;;;;1.60;1.50;;;;;;;;;;5092931;28;20439;-61
2023/08/31 10:42:46;;;;;;;2.57;2.10;;;;;;;;;;5093469;28;20490;-61
2023/08/31 10:45:14;;;;;;;2.10;1.50;;;;;;;;;;5092471;28;20436;-60
2023/08/31 10:47:42;;;;;;;2.00;1.53;;;;;;;;;;5093422;28;20787;-60
2023/08/31 10:50:21;;;;;;;4.03;1.70;;;;;;;;;;5092729;28;20794;-60
2023/08/31 10:52:49;;;;;;;3.80;1.70;;;;;;;;;;5092541;28;20471;-60
2023/08/31 10:55:17;;;;;;;2.20;2.00;;;;;;;;;;5092520;28;20911;-60
2023/08/31 10:57:45;;;;;;;4.10;1.57;;;;;;;;;;5092775;28;20479;-61
2023/08/31 11:00:13;;;;;;;2.60;1.57;;;;;;;;;;5092391;28;20500;-61
2023/08/31 11:02:43;;;;;;;1.90;1.70;;;;;;;;;;5092444;28;20991;-61
2023/08/31 11:05:11;;;;;;;2.10;1.50;;;;;;;;;;5092722;28;20475;-60
2023/08/31 11:07:41;;;;;;;5.40;1.90;;;;;;;;;;5092750;28;20530;-60
2023/08/31 11:10:10;;;;;;;2.20;1.47;;;;;;;;;;5092635;28;20453;-60
2023/08/31 11:12:37;;;;;;;2.53;1.30;;;;;;;;;;5092605;28;20443;-61
2023/08/31 11:15:04;;;;;;;2.87;1.57;;;;;;;;;;5092790;28;20439;-61
2023/08/31 11:17:32;;;;;;;4.73;1.70;;;;;;;;;;5092624;28;20502;-61
2023/08/31 11:19:59;;;;;;;2.10;1.40;;;;;;;;;;5092202;28;20442;-61
2023/08/31 11:22:27;;;;;;;5.33;1.80;;;;;;;;;;5092596;28;20552;-61
2023/08/31 11:24:55;;;;;;;3.63;1.90;;;;;;;;;;5092495;28;20450;-61
2023/08/31 11:27:23;;;;;;;6.83;1.70;;;;;;;;;;5092984;28;20441;-61
2023/08/31 11:29:50;;;;;;;4.30;2.30;;;;;;;;;;5092402;28;20812;-61
2023/08/31 11:32:17;;;;;;;1.93;1.53;;;;;;;;;;5093520;28;20435;-64
2023/08/31 11:34:46;;;;;;;2.07;1.87;;;;;;;;;;5095854;28;20474;-61
2023/08/31 11:37:15;;;;;;;2.13;1.93;;;;;;;;;;5095798;28;20474;-61
2023/08/31 11:39:42;;;;;;;2.30;1.60;;;;;;;;;;5095982;28;20542;-62
2023/08/31 11:42:11;;;;;;;3.77;2.27;;;;;;;;;;5096580;28;20531;-62
2023/08/31 11:44:38;;;;;;;4.40;2.57;;;;;;;;;;5095999;28;20533;-62
2023/08/31 11:47:05;;;;;;;2.50;2.27;;;;;;;;;;5096025;28;20443;-62
2023/08/31 11:49:33;;;;;;;8.53;1.83;;;;;;;;;;5096020;28;20451;-62
2023/08/31 11:52:00;;;;;;;2.90;1.70;;;;;;;;;;5095939;28;20446;-62
2023/08/31 11:54:27;;;;;;;2.53;1.93;;;;;;;;;;5094271;28;20834;-62
2023/08/31 11:56:55;;;;;;;3.47;2.20;;;;;;;;;;5095127;28;20487;-62
2023/08/31 11:59:24;;;;;;;3.90;2.60;;;;;;;;;;5094742;28;21003;-62
2023/08/31 12:01:51;;;;;;;4.57;2.10;;;;;;;;;;5094911;28;20508;-62
2023/08/31 12:04:23;;;;;;;3.87;2.47;;;;;;;;;;5094956;28;20526;-62
2023/08/31 12:06:51;;;;;;;3.63;2.10;;;;;;;;;;5094928;28;20423;-62
2023/08/31 12:09:19;;;;;;;4.53;2.93;;;;;;;;;;5094867;28;20821;-62
2023/08/31 12:11:51;;;;;;;4.57;2.30;;;;;;;;;;5094903;28;20438;-62
2023/08/31 12:14:22;;;;;;;5.27;2.80;;;;;;;;;;5095288;28;20424;-62
2023/08/31 12:16:51;;;;;;;5.70;3.10;;;;;;;;;;5094750;28;20953;-62
2023/08/31 12:19:19;;;;;;;4.13;2.90;;;;;;;;;;5094630;28;20461;-62
2023/08/31 12:21:47;;;;;;;3.20;2.93;;;;;;;;;;5095370;28;20868;-62
2023/08/31 12:24:15;;;;;;;4.00;2.90;;;;;;;;;;5095110;28;20457;-62
2023/08/31 12:26:43;;;;;;;3.60;3.30;;;;;;;;;;5095219;28;20522;-62
2023/08/31 12:29:10;;;;;;;4.30;3.50;;;;;;;;;;5095186;28;20455;-62
2023/08/31 12:31:38;;;;;;;3.77;3.00;;;;;;;;;;5095367;28;20541;-62
2023/08/31 12:34:07;;;;;;;5.00;3.57;;;;;;;;;;5094657;28;20445;-62
2023/08/31 12:36:36;;;;;;;3.87;2.73;;;;;;;;;;5094597;28;20525;-62
2023/08/31 12:39:06;;;;;;;3.27;2.70;;;;;;;;;;5094263;28;21000;-62
2023/08/31 12:41:34;;;;;;;6.33;3.40;;;;;;;;;;5094846;28;20441;-62
2023/08/31 12:44:01;;;;;;;5.43;3.60;;;;;;;;;;5093741;28;20435;-62
2023/08/31 12:46:28;;;;;;;8.03;3.30;;;;;;;;;;5094767;28;20532;-61
2023/08/31 12:48:55;;;;;;;3.90;3.60;;;;;;;;;;5094723;28;20529;-60
2023/08/31 12:51:24;;;;;;;3.50;3.20;;;;;;;;;;5094354;28;20890;-60
2023/08/31 12:53:51;;;;;;;2.90;2.50;;;;;;;;;;5094303;28;20557;-60
2023/08/31 12:56:21;;;;;;;3.10;2.70;;;;;;;;;;5094052;28;20431;-61
2023/08/31 12:58:49;;;;;;;3.63;2.80;;;;;;;;;;5093772;28;20464;-61
2023/08/31 13:01:16;;;;;;;2.90;2.60;;;;;;;;;;5094330;28;20808;-61
2023/08/31 13:03:43;;;;;;;3.90;3.30;;;;;;;;;;5094731;28;20521;-61
2023/08/31 13:06:11;;;;;;;4.30;3.00;;;;;;;;;;5094325;28;20451;-61
2023/08/31 13:08:39;;;;;;;5.80;2.90;;;;;;;;;;5094079;28;20443;-61
2023/08/31 13:11:07;;;;;;;3.00;2.50;;;;;;;;;;5094298;28;20524;-61
2023/08/31 13:13:34;;;;;;;4.10;2.97;;;;;;;;;;5094941;28;20464;-61
2023/08/31 13:16:02;;;;;;;5.03;2.93;;;;;;;;;;5094268;28;20516;-61
2023/08/31 13:18:29;;;;;;;5.70;3.63;;;;;;;;;;5093615;28;20477;-61
2023/08/31 13:20:57;;;;;;;3.80;3.50;;;;;;;;;;5094092;28;20500;-61
2023/08/31 13:23:24;;;;;;;5.50;3.47;;;;;;;;;;5094355;28;20540;-61
2023/08/31 13:25:53;;;;;;;3.30;3.00;;;;;;;;;;5093940;28;20929;-62
2023/08/31 13:28:20;;;;;;;3.93;3.57;;;;;;;;;;5094422;28;20443;-62
2023/08/31 13:30:47;;;;;;;3.30;3.10;;;;;;;;;;5094176;28;20442;-61
2023/08/31 13:33:14;;;;;;;3.27;3.00;;;;;;;;;;5093709;28;20464;-61
2023/08/31 13:35:42;;;;;;;4.93;3.33;;;;;;;;;;5093778;28;20491;-62
2023/08/31 13:38:09;;;;;;;4.13;3.43;;;;;;;;;;5093336;28;20485;-62
2023/08/31 13:40:37;;;;;;;4.70;3.13;;;;;;;;;;5094011;28;20493;-62
2023/08/31 13:43:05;;;;;;;7.33;4.40;;;;;;;;;;5093836;28;20431;-62
2023/08/31 13:45:33;;;;;;;5.53;4.30;;;;;;;;;;5093428;28;20530;-62
2023/08/31 13:48:01;;;;;;;8.33;3.87;;;;;;;;;;5093893;28;20448;-61
2023/08/31 13:50:28;;;;;;;3.77;3.47;;;;;;;;;;5093730;28;21024;-62
2023/08/31 13:52:55;;;;;;;4.30;3.87;;;;;;;;;;5093362;28;20434;-62
2023/08/31 13:55:23;;;;;;;18.80;4.10;;;;;;;;;;5093401;28;20775;-62
2023/08/31 13:57:50;;;;;;;4.03;3.73;;;;;;;;;;5093222;28;20504;-62
2023/08/31 14:00:19;;;;;;;4.67;3.60;;;;;;;;;;5093045;28;20978;-62
2023/08/31 14:02:46;;;;;;;3.83;3.50;;;;;;;;;;5093567;28;20602;-62
2023/08/31 14:05:14;;;;;;;4.27;3.80;;;;;;;;;;5093427;28;20451;-61
2023/08/31 14:07:41;;;;;;;4.50;4.10;;;;;;;;;;5093234;28;20439;-61
2023/08/31 14:10:09;;;;;;;5.30;3.90;;;;;;;;;;5093277;28;20458;-61
2023/08/31 14:12:36;;;;;;;4.53;4.10;;;;;;;;;;5093348;28;20956;-61
2023/08/31 14:15:04;;;;;;;13.27;3.87;;;;;;;;;;5093224;28;20476;-61
2023/08/31 14:17:33;;;;;;;4.13;3.80;;;;;;;;;;5092640;28;20864;-62
2023/08/31 14:20:04;;;;;;;4.97;3.70;;;;;;;;;;5093423;28;20458;-61
2023/08/31 14:22:31;;;;;;;6.90;3.83;;;;;;;;;;5093258;28;20475;-61
2023/08/31 14:24:58;;;;;;;4.40;3.10;;;;;;;;;;5092728;28;20593;-61
2023/08/31 14:27:27;;;;;;;2.80;2.60;;;;;;;;;;5092820;28;20992;-61
2023/08/31 14:29:54;;;;;;;3.67;3.10;;;;;;;;;;5093114;28;20866;-61
2023/08/31 14:32:22;;;;;;;3.83;3.00;;;;;;;;;;5093322;28;20523;-61
2023/08/31 14:34:51;;;;;;;4.10;2.77;;;;;;;;;;5093387;28;20450;-61